Quasimodo — DC7624 — position and weather

sailwx.info

Track history (hours):
 
Tides and Currents Weather Stations Pressure Air Temp Water Temp Dewpoint Dewpoint Depression Visibility Wind Speed Wind Dir Waves Ship Positions

Quasimodo

Last reported at 2018-Jun-10 04:58 UTC. Time now 2018-Jun-20 02:04 UTC.
Position N 44°07' E 027°12'.
Warning: this ship's position is 9 days out of date.

Length 110 m; draft 0.2 m.

Type: Ship. MMSI: 2525526.

Date/timePositionNaut miles runAvg speedWind from/ knotsBaromVisibWave heightAir tempDewpointWater temp
2018-Jun-10 04:58N 44°07' E 027°12'2 1.9
2018-Jun-10 04:05N 44°07' E 027°14'0 0.0
2018-Jun-10 03:57N 44°07' E 027°14'0 0.0
2018-Jun-10 02:38N 44°07' E 027°14'0 0.0
2018-Jun-10 02:23N 44°07' E 027°14'0 0.0
2018-Jun-10 01:04N 44°07' E 027°14'0 0.0
2018-Jun-10 01:00N 44°07' E 027°14'0 0.0
2018-Jun-10 00:29N 44°07' E 027°14'0 0.0
2018-Jun-09 23:59N 44°07' E 027°14'0 0.0
2018-Jun-09 23:30N 44°07' E 027°14'0 0.0
2018-Jun-09 23:00N 44°07' E 027°14'0 0.0
2018-Jun-09 22:28N 44°07' E 027°14'0 0.0
2018-Jun-09 21:48N 44°07' E 027°14'0 0.0
2018-Jun-09 21:24N 44°07' E 027°14'0 0.0
2018-Jun-09 20:18N 44°07' E 027°14'0 0.0
2018-Jun-09 20:00N 44°07' E 027°14'0 0.0
2018-Jun-09 19:29N 44°07' E 027°14'0 0.0
2018-Jun-09 19:00N 44°07' E 027°14'0 0.0
2018-Jun-09 18:30N 44°07' E 027°14'0 0.0
2018-Jun-09 18:00N 44°07' E 027°14'41 1.3
2018-Jun-08 11:20N 44°16' E 028°09'2 4.4
2018-Jun-08 10:57N 44°16' E 028°12'2 4.4
2018-Jun-08 10:29N 44°15' E 028°15'2 4.3
2018-Jun-08 10:00N 44°15' E 028°18'2 4.3
2018-Jun-08 09:30N 44°15' E 028°21'2 4.3
2018-Jun-08 09:00N 44°13' E 028°23'2 4.4
2018-Jun-08 08:27N 44°11' E 028°24'8 3.8
2018-Jun-08 06:27N 44°06' E 028°31'2 4.3
2018-Jun-08 06:00N 44°06' E 028°34'2 4.2
2018-Jun-08 05:30N 44°06' E 028°37'0 0.4
2018-Jun-08 05:00N 44°06' E 028°37'1 1.7
2018-Jun-08 04:30N 44°06' E 028°38'1 2.0
2018-Jun-08 04:00N 44°07' E 028°39'0 0.0
2018-Jun-08 03:30N 44°07' E 028°39'0 0.0
2018-Jun-08 03:00N 44°07' E 028°39'0 0.0
2018-Jun-08 02:30N 44°07' E 028°39'0 0.0
2018-Jun-08 02:00N 44°07' E 028°39'0 0.0
2018-Jun-08 01:30N 44°07' E 028°39'0 0.0
2018-Jun-08 01:01N 44°07' E 028°39'0 0.0
2018-Jun-08 00:31N 44°07' E 028°39'0 0.0
2018-Jun-08 00:01N 44°07' E 028°39'0 0.0
2018-Jun-07 23:30N 44°07' E 028°39'0 0.0
2018-Jun-07 23:00N 44°07' E 028°39'0 0.0
2018-Jun-07 22:30N 44°07' E 028°39'0 0.0
2018-Jun-07 22:00N 44°07' E 028°39'0 0.0
2018-Jun-07 21:30N 44°07' E 028°39'0 0.0
2018-Jun-07 21:00N 44°07' E 028°39'0 0.0
2018-Jun-07 20:30N 44°07' E 028°39'0 0.0
2018-Jun-07 20:00N 44°07' E 028°39'0 0.0
2018-Jun-07 19:30N 44°07' E 028°39'0 0.0
2018-Jun-07 19:00N 44°07' E 028°39'0 0.0
2018-Jun-07 18:31N 44°07' E 028°39'0 0.0
2018-Jun-07 18:00N 44°07' E 028°39'0 0.0
2018-Jun-07 17:30N 44°07' E 028°39'0 0.0
2018-Jun-07 17:00N 44°07' E 028°39'0 0.0
2018-Jun-07 16:30N 44°07' E 028°39'0 0.0
2018-Jun-07 16:00N 44°07' E 028°39'0 0.0
2018-Jun-07 15:30N 44°07' E 028°39'0 0.0
2018-Jun-07 15:00N 44°07' E 028°39'0 0.0
2018-Jun-07 14:30N 44°07' E 028°39'0 0.0
2018-Jun-07 14:00N 44°07' E 028°39'0 0.0
2018-Jun-07 13:30N 44°07' E 028°39'0 0.0
2018-Jun-07 13:00N 44°07' E 028°39'0 0.0
2018-Jun-07 12:30N 44°07' E 028°39'0 0.0
2018-Jun-07 12:00N 44°07' E 028°39'0 0.0
2018-Jun-07 11:31N 44°07' E 028°39'0 0.0
2018-Jun-07 11:00N 44°07' E 028°39'0 0.0
2018-Jun-07 10:30N 44°07' E 028°39'0 0.0
2018-Jun-07 10:00N 44°07' E 028°39'0 0.0
2018-Jun-07 09:30N 44°07' E 028°39'0 0.0
2018-Jun-07 09:01N 44°07' E 028°39'0 0.0
2018-Jun-07 08:30N 44°07' E 028°39'0 0.0
2018-Jun-07 08:00N 44°07' E 028°39'0 0.0
2018-Jun-07 07:30N 44°07' E 028°39'0 0.0
2018-Jun-07 07:00N 44°07' E 028°39'0 0.0
2018-Jun-07 06:30N 44°07' E 028°39'0 0.0
2018-Jun-07 06:00N 44°07' E 028°39'0 0.0
2018-Jun-07 05:30N 44°07' E 028°39'0 0.0
2018-Jun-07 05:00N 44°07' E 028°39'0 0.0
2018-Jun-07 04:30N 44°07' E 028°39'0 0.0
2018-Jun-07 04:00N 44°07' E 028°39'0 0.0
2018-Jun-07 03:30N 44°07' E 028°39'0 0.0
2018-Jun-07 03:00N 44°07' E 028°39'0 0.0
2018-Jun-07 02:30N 44°07' E 028°39'0 0.0
2018-Jun-07 02:00N 44°07' E 028°39'0 0.0
2018-Jun-07 01:30N 44°07' E 028°39'0 0.0
2018-Jun-07 01:01N 44°07' E 028°39'0 0.0
2018-Jun-07 00:30N 44°07' E 028°39'0 0.0
2018-Jun-07 00:00N 44°07' E 028°39'0 0.0
2018-Jun-06 23:30N 44°07' E 028°39'0 0.0
2018-Jun-06 23:00N 44°07' E 028°39'0 0.0
2018-Jun-06 22:30N 44°07' E 028°39'0 0.0
2018-Jun-06 22:00N 44°07' E 028°39'0 0.0
2018-Jun-06 21:30N 44°07' E 028°39'0 0.0
2018-Jun-06 21:00N 44°07' E 028°39'0 0.0
2018-Jun-06 20:30N 44°07' E 028°39'0 0.0
2018-Jun-06 20:00N 44°07' E 028°39'0 0.0
2018-Jun-06 19:30N 44°07' E 028°39'0 0.0
2018-Jun-06 19:00N 44°07' E 028°39'0 0.0
2018-Jun-06 18:30N 44°07' E 028°39'0 0.0
2018-Jun-06 18:00N 44°07' E 028°39'0 0.0
2018-Jun-06 17:30N 44°07' E 028°39'0 0.0
2018-Jun-06 17:00N 44°07' E 028°39'0 0.9
2018-Jun-06 16:30N 44°07' E 028°39'2 4.0
2018-Jun-06 16:00N 44°09' E 028°40'0 0.0
2018-Jun-06 15:30N 44°09' E 028°40'0 0.0
2018-Jun-06 15:00N 44°09' E 028°40'0 0.0
2018-Jun-06 14:30N 44°09' E 028°40'0 0.0
2018-Jun-06 14:00N 44°09' E 028°40'0 0.0
2018-Jun-06 13:30N 44°09' E 028°40'0 0.0
2018-Jun-06 13:00N 44°09' E 028°40'0 0.0
2018-Jun-06 12:30N 44°09' E 028°40'0 0.0
2018-Jun-06 12:00N 44°09' E 028°40'0 0.0
2018-Jun-06 11:30N 44°09' E 028°40'0 0.0
2018-Jun-06 11:00N 44°09' E 028°40'0 0.0
2018-Jun-06 10:30N 44°09' E 028°40'0 0.0
2018-Jun-06 10:01N 44°09' E 028°40'0 0.0
2018-Jun-06 09:30N 44°09' E 028°40'0 0.0
2018-Jun-06 09:01N 44°09' E 028°40'0 0.0
2018-Jun-06 08:30N 44°09' E 028°40'0 0.0
2018-Jun-06 08:00N 44°09' E 028°40'0 0.0
2018-Jun-06 07:30N 44°09' E 028°40'0 0.0
2018-Jun-06 07:00N 44°09' E 028°40'0 0.0
2018-Jun-06 06:30N 44°09' E 028°40'0 0.1
2018-Jun-06 06:00N 44°09' E 028°40'0 0.0
2018-Jun-06 05:30N 44°09' E 028°40'0 0.0
2018-Jun-06 05:00N 44°09' E 028°40'0 0.0
2018-Jun-06 04:30N 44°09' E 028°40'0 0.0
2018-Jun-06 04:00N 44°09' E 028°40'0 0.0
2018-Jun-06 03:30N 44°09' E 028°40'0 0.0
2018-Jun-06 03:00N 44°09' E 028°40'0 0.0
2018-Jun-06 02:30N 44°09' E 028°40'0 0.0
2018-Jun-06 02:00N 44°09' E 028°40'0 0.0
2018-Jun-06 01:30N 44°09' E 028°40'0 0.0
2018-Jun-06 01:00N 44°09' E 028°40'0 0.0
2018-Jun-06 00:30N 44°09' E 028°40'0 0.0
2018-Jun-06 00:00N 44°09' E 028°40'0 0.0
2018-Jun-05 23:30N 44°09' E 028°40'0 0.0
2018-Jun-05 23:01N 44°09' E 028°40'0 0.0
2018-Jun-05 22:30N 44°09' E 028°40'0 0.0
2018-Jun-05 22:00N 44°09' E 028°40'0 0.0
2018-Jun-05 21:30N 44°09' E 028°40'0 0.0
2018-Jun-05 21:00N 44°09' E 028°40'0 0.0
2018-Jun-05 20:30N 44°09' E 028°40'0 0.0
2018-Jun-05 20:00N 44°09' E 028°40'0 0.1
2018-Jun-05 19:30N 44°09' E 028°40'0 0.1
2018-Jun-05 19:00N 44°09' E 028°40'0 0.0
2018-Jun-05 18:30N 44°09' E 028°40'0 0.0
2018-Jun-05 18:00N 44°09' E 028°40'0 0.0
2018-Jun-05 17:30N 44°09' E 028°40'0 0.0
2018-Jun-05 17:00N 44°09' E 028°40'0 0.0
2018-Jun-05 16:30N 44°09' E 028°40'0 0.0
2018-Jun-05 16:00N 44°09' E 028°40'0 0.0
2018-Jun-05 15:31N 44°09' E 028°40'0 0.0
2018-Jun-05 15:01N 44°09' E 028°40'0 0.0
2018-Jun-05 14:30N 44°09' E 028°40'0 0.0
2018-Jun-05 14:00N 44°09' E 028°40'0 0.0
2018-Jun-05 13:30N 44°09' E 028°40'0 0.0
2018-Jun-05 13:00N 44°09' E 028°40'0 0.0
2018-Jun-05 12:31N 44°09' E 028°40'0 0.0
2018-Jun-05 12:00N 44°09' E 028°40'0 0.0
2018-Jun-05 11:31N 44°09' E 028°40'0 0.0
2018-Jun-05 11:00N 44°09' E 028°40'0 0.0
2018-Jun-05 10:30N 44°09' E 028°40'0 0.0
2018-Jun-05 10:00N 44°09' E 028°40'0 0.0
2018-Jun-05 09:30N 44°09' E 028°40'0 0.0
2018-Jun-05 09:00N 44°09' E 028°40'0 0.0
2018-Jun-05 08:30N 44°09' E 028°40'0 0.0
2018-Jun-05 08:00N 44°09' E 028°40'0 0.0
2018-Jun-05 07:30N 44°09' E 028°40'0 0.0
2018-Jun-05 07:00N 44°09' E 028°40'0 0.4
2018-Jun-05 06:30N 44°09' E 028°40'2 4.7
2018-Jun-05 06:00N 44°07' E 028°39'0 0.2
2018-Jun-05 05:30N 44°07' E 028°39'0 0.0
2018-Jun-05 05:00N 44°07' E 028°39'0 0.0
2018-Jun-05 04:30N 44°07' E 028°39'0 0.0
2018-Jun-05 04:00N 44°07' E 028°39'0 0.0
2018-Jun-05 03:30N 44°07' E 028°39'0 0.0
2018-Jun-05 03:00N 44°07' E 028°39'0 0.0
2018-Jun-05 02:30N 44°07' E 028°39'0 0.0
2018-Jun-05 02:00N 44°07' E 028°39'0 0.0
2018-Jun-05 01:30N 44°07' E 028°39'0 0.0
2018-Jun-05 01:00N 44°07' E 028°39'0 0.0
2018-Jun-05 00:30N 44°07' E 028°39'0 0.0
2018-Jun-05 00:00N 44°07' E 028°39'0 0.0
2018-Jun-04 23:30N 44°07' E 028°39'0 0.0
2018-Jun-04 23:00N 44°07' E 028°39'0 0.0
2018-Jun-04 22:30N 44°07' E 028°39'0 0.0
2018-Jun-04 22:00N 44°07' E 028°39'0 0.0
2018-Jun-04 21:31N 44°07' E 028°39'0 0.0
2018-Jun-04 21:00N 44°07' E 028°39'0 0.0
2018-Jun-04 20:30N 44°07' E 028°39'0 0.0
2018-Jun-04 20:00N 44°07' E 028°39'0 0.0
2018-Jun-04 19:30N 44°07' E 028°39'0 0.0
2018-Jun-04 19:00N 44°07' E 028°39'0 0.0
2018-Jun-04 18:30N 44°07' E 028°39'0 0.0
2018-Jun-04 18:00N 44°07' E 028°39'0 0.0
2018-Jun-04 17:30N 44°07' E 028°39'0 0.0
2018-Jun-04 17:00N 44°07' E 028°39'0 0.0
2018-Jun-04 16:30N 44°07' E 028°39'0 0.0
2018-Jun-04 16:00N 44°07' E 028°39'0 0.0
2018-Jun-04 15:31N 44°07' E 028°39'0 0.0
2018-Jun-04 15:00N 44°07' E 028°39'0 0.0
2018-Jun-04 14:30N 44°07' E 028°39'0 0.0
2018-Jun-04 14:00N 44°07' E 028°39'0 0.0
2018-Jun-04 13:30N 44°07' E 028°39'0 0.0
2018-Jun-04 13:00N 44°07' E 028°39'0 0.0
2018-Jun-04 12:30N 44°07' E 028°39'0 0.0
2018-Jun-04 12:00N 44°07' E 028°39'0 0.0
2018-Jun-04 11:30N 44°07' E 028°39'0 0.0
2018-Jun-04 11:00N 44°07' E 028°39'0 0.0
2018-Jun-04 10:30N 44°07' E 028°39'0 0.0
2018-Jun-04 10:00N 44°07' E 028°39'0 0.0
2018-Jun-04 09:30N 44°07' E 028°39'0 0.0
2018-Jun-04 09:00N 44°07' E 028°39'0 0.0
2018-Jun-04 08:30N 44°07' E 028°39'0 0.0
2018-Jun-04 08:00N 44°07' E 028°39'0 0.0
2018-Jun-04 07:30N 44°07' E 028°39'0 0.0
2018-Jun-04 07:00N 44°07' E 028°39'0 0.0
2018-Jun-04 06:30N 44°07' E 028°39'0 0.0
2018-Jun-04 06:00N 44°07' E 028°39'0 0.0
2018-Jun-04 05:30N 44°07' E 028°39'0 0.0
2018-Jun-04 05:00N 44°07' E 028°39'0 0.0
2018-Jun-04 04:30N 44°07' E 028°39'0 0.0
2018-Jun-04 04:00N 44°07' E 028°39'0 0.0
2018-Jun-04 03:31N 44°07' E 028°39'0 0.0
2018-Jun-04 03:00N 44°07' E 028°39'0 0.0
2018-Jun-04 02:30N 44°07' E 028°39'0 0.0
2018-Jun-04 02:00N 44°07' E 028°39'0 0.0
2018-Jun-04 01:30N 44°07' E 028°39'0 0.0
2018-Jun-04 01:00N 44°07' E 028°39'0 0.0
2018-Jun-04 00:30N 44°07' E 028°39'0 0.0
2018-Jun-04 00:00N 44°07' E 028°39'0 0.0
2018-Jun-03 23:30N 44°07' E 028°39'0 0.0
2018-Jun-03 23:00N 44°07' E 028°39'0 0.0
2018-Jun-03 22:30N 44°07' E 028°39'0 0.0
2018-Jun-03 22:00N 44°07' E 028°39'0 0.0
2018-Jun-03 21:30N 44°07' E 028°39'0 0.0
2018-Jun-03 21:00N 44°07' E 028°39'0 0.0
2018-Jun-03 20:30N 44°07' E 028°39'0 0.0
2018-Jun-03 20:00N 44°07' E 028°39'0 0.0
2018-Jun-03 19:30N 44°07' E 028°39'0 0.0
2018-Jun-03 19:00N 44°07' E 028°39'0 0.0
2018-Jun-03 18:30N 44°07' E 028°39'0 0.0
2018-Jun-03 18:00N 44°07' E 028°39'0 0.0
2018-Jun-03 17:30N 44°07' E 028°39'0 0.0
2018-Jun-03 17:00N 44°07' E 028°39'0 0.0
2018-Jun-03 16:28N 44°07' E 028°39'0 0.0
2018-Jun-03 16:00N 44°07' E 028°39'0 0.0
2018-Jun-03 15:30N 44°07' E 028°39'0 0.0
2018-Jun-03 15:00N 44°07' E 028°39'0 0.0
2018-Jun-03 14:30N 44°07' E 028°39'0 0.0
2018-Jun-03 14:00N 44°07' E 028°39'0 0.0
2018-Jun-03 13:30N 44°07' E 028°39'0 0.0
2018-Jun-03 12:59N 44°07' E 028°39'0 0.0
2018-Jun-03 12:30N 44°07' E 028°39'0 0.0
2018-Jun-03 12:00N 44°07' E 028°39'0 0.0
2018-Jun-03 11:30N 44°07' E 028°39'0 0.0
2018-Jun-03 11:00N 44°07' E 028°39'0 0.0
2018-Jun-03 10:30N 44°07' E 028°39'0 0.0
2018-Jun-03 10:00N 44°07' E 028°39'0 0.0
2018-Jun-03 09:30N 44°07' E 028°39'0 0.0
2018-Jun-03 09:00N 44°07' E 028°39'0 0.0
2018-Jun-03 08:30N 44°07' E 028°39'0 0.0
2018-Jun-03 08:00N 44°07' E 028°39'0 0.0
2018-Jun-03 07:30N 44°07' E 028°39'0 0.0
2018-Jun-03 07:00N 44°07' E 028°39'0 0.0
2018-Jun-03 06:30N 44°07' E 028°39'0 0.0
2018-Jun-03 06:00N 44°07' E 028°39'0 0.0
2018-Jun-03 05:30N 44°07' E 028°39'0 0.0
2018-Jun-03 05:00N 44°07' E 028°39'0 0.0
2018-Jun-03 04:30N 44°07' E 028°39'0 0.0
2018-Jun-03 04:00N 44°07' E 028°39'0 0.0
2018-Jun-03 03:30N 44°07' E 028°39'0 0.0
2018-Jun-03 03:00N 44°07' E 028°39'0 0.0
2018-Jun-03 02:30N 44°07' E 028°39'0 0.0
2018-Jun-03 02:00N 44°07' E 028°39'0 0.0
2018-Jun-03 01:30N 44°07' E 028°39'0 0.0
2018-Jun-03 01:00N 44°07' E 028°39'0 0.0
2018-Jun-03 00:30N 44°07' E 028°39'0 0.0
2018-Jun-03 00:00N 44°07' E 028°39'0 0.0
2018-Jun-02 23:31N 44°07' E 028°39'0 0.0
2018-Jun-02 23:00N 44°07' E 028°39'0 0.0
2018-Jun-02 22:30N 44°07' E 028°39'0 0.0
2018-Jun-02 22:00N 44°07' E 028°39'0 0.0
2018-Jun-02 21:29N 44°07' E 028°39'0 0.0
2018-Jun-02 21:00N 44°07' E 028°39'0 0.0
2018-Jun-02 20:30N 44°07' E 028°39'0 0.0
2018-Jun-02 20:00N 44°07' E 028°39'0 0.0
2018-Jun-02 19:30N 44°07' E 028°39'0 0.0
2018-Jun-02 19:00N 44°07' E 028°39'0 0.0
2018-Jun-02 18:30N 44°07' E 028°39'0 0.0
2018-Jun-02 18:00N 44°07' E 028°39'0 0.0
2018-Jun-02 17:30N 44°07' E 028°39'0 0.0
2018-Jun-02 17:00N 44°07' E 028°39'0 0.0
2018-Jun-02 16:30N 44°07' E 028°39'0 0.0
2018-Jun-02 16:00N 44°07' E 028°39'0 0.0
2018-Jun-02 15:30N 44°07' E 028°39'0 0.0
2018-Jun-02 15:00N 44°07' E 028°39'0 0.0
2018-Jun-02 14:30N 44°07' E 028°39'0 0.0
2018-Jun-02 14:00N 44°07' E 028°39'0 0.0
2018-Jun-02 13:30N 44°07' E 028°39'0 0.0
2018-Jun-02 13:00N 44°07' E 028°39'0 0.0
2018-Jun-02 12:30N 44°07' E 028°39'0 0.0
2018-Jun-02 12:00N 44°07' E 028°39'0 0.0
2018-Jun-02 11:30N 44°07' E 028°39'0 0.0
2018-Jun-02 11:00N 44°07' E 028°39'0 0.0
2018-Jun-02 10:30N 44°07' E 028°39'0 0.0
2018-Jun-02 10:00N 44°07' E 028°39'0 0.0
2018-Jun-02 09:30N 44°07' E 028°39'0 0.0
2018-Jun-02 09:00N 44°07' E 028°39'0 0.0
2018-Jun-02 08:30N 44°07' E 028°39'0 0.0
2018-Jun-02 08:00N 44°07' E 028°39'0 0.0
2018-Jun-02 07:30N 44°07' E 028°39'0 0.0
2018-Jun-02 07:00N 44°07' E 028°39'0 0.0
2018-Jun-02 06:30N 44°07' E 028°39'0 0.0
2018-Jun-02 06:00N 44°07' E 028°39'0 0.0
2018-Jun-02 04:33N 44°07' E 028°39'0 0.0
2018-Jun-02 04:30N 44°07' E 028°39'0 0.0
2018-Jun-02 04:00N 44°07' E 028°39'0 0.0
2018-Jun-02 03:30N 44°07' E 028°39'0 0.0
2018-Jun-02 03:00N 44°07' E 028°39'0 0.0
2018-Jun-02 02:30N 44°07' E 028°39'0 0.0
2018-Jun-02 01:59N 44°07' E 028°39'0 0.0
2018-Jun-02 01:30N 44°07' E 028°39'0 0.0
2018-Jun-02 01:00N 44°07' E 028°39'0 0.0
2018-Jun-02 00:30N 44°07' E 028°39'0 0.0
2018-Jun-02 00:00N 44°07' E 028°39'0 0.0
2018-Jun-01 23:30N 44°07' E 028°39'0 0.0
2018-Jun-01 23:00N 44°07' E 028°39'0 0.0
2018-Jun-01 22:30N 44°07' E 028°39'0 0.0
2018-Jun-01 22:00N 44°07' E 028°39'0 0.0
2018-Jun-01 21:30N 44°07' E 028°39'0 0.0
2018-Jun-01 21:00N 44°07' E 028°39'0 0.0
2018-Jun-01 20:30N 44°07' E 028°39'0 0.0
2018-Jun-01 20:00N 44°07' E 028°39'0 0.0
2018-Jun-01 19:30N 44°07' E 028°39'0 0.0
2018-Jun-01 19:00N 44°07' E 028°39'0 0.0
2018-Jun-01 18:30N 44°07' E 028°39'0 0.0
2018-Jun-01 18:00N 44°07' E 028°39'0 0.0
2018-Jun-01 17:30N 44°07' E 028°39'0 0.0
2018-Jun-01 17:00N 44°07' E 028°39'0 0.6
2018-Jun-01 16:30N 44°07' E 028°39'1 1.8
2018-Jun-01 16:00N 44°06' E 028°40'0 0.0
2018-Jun-01 15:30N 44°06' E 028°40'0 0.1
2018-Jun-01 15:00N 44°06' E 028°40'0 0.0
2018-Jun-01 14:30N 44°06' E 028°40'0 0.1
2018-Jun-01 14:00N 44°06' E 028°40'0 0.0
2018-Jun-01 13:30N 44°06' E 028°40'0 0.0
2018-Jun-01 13:00N 44°06' E 028°40'0 0.0
2018-Jun-01 12:30N 44°06' E 028°40'0 0.0
2018-Jun-01 12:00N 44°06' E 028°40'0 0.0
2018-Jun-01 11:30N 44°06' E 028°40'0 0.0
2018-Jun-01 11:00N 44°06' E 028°40'0 0.0
2018-Jun-01 10:30N 44°06' E 028°40'0 0.1
2018-Jun-01 10:00N 44°06' E 028°40'0 0.0
2018-Jun-01 09:30N 44°06' E 028°40'0 0.0
2018-Jun-01 09:00N 44°06' E 028°40'0 0.0
2018-Jun-01 08:30N 44°06' E 028°40'0 0.0
2018-Jun-01 08:00N 44°06' E 028°40'0 0.0
2018-Jun-01 07:30N 44°06' E 028°40'0 0.0
2018-Jun-01 07:00N 44°06' E 028°40'0 0.0
2018-Jun-01 06:30N 44°06' E 028°40'0 0.0
2018-Jun-01 06:00N 44°06' E 028°40'0 0.0
2018-Jun-01 05:30N 44°06' E 028°40'0 0.0
2018-Jun-01 05:00N 44°06' E 028°40'0 0.0
2018-Jun-01 04:30N 44°06' E 028°40'0 0.0
2018-Jun-01 04:00N 44°06' E 028°40'0 0.0
2018-Jun-01 03:30N 44°06' E 028°40'0 0.0
2018-Jun-01 03:00N 44°06' E 028°40'0 0.0
2018-Jun-01 02:30N 44°06' E 028°40'0 0.0
2018-Jun-01 02:00N 44°06' E 028°40'0 0.0
2018-Jun-01 01:30N 44°06' E 028°40'0 0.0
2018-Jun-01 01:00N 44°06' E 028°40'0 0.0
2018-Jun-01 00:30N 44°06' E 028°40'0 0.1
2018-Jun-01 00:00N 44°06' E 028°40'0 0.0
2018-May-31 23:30N 44°06' E 028°40'0 0.0
2018-May-31 23:00N 44°06' E 028°40'0 0.0
2018-May-31 22:30N 44°06' E 028°40'0 0.0
2018-May-31 22:00N 44°06' E 028°40'0 0.0
2018-May-31 21:30N 44°06' E 028°40'0 0.0
2018-May-31 21:00N 44°06' E 028°40'0 0.0
2018-May-31 20:30N 44°06' E 028°40'0 0.0
2018-May-31 20:00N 44°06' E 028°40'0 0.0
2018-May-31 19:30N 44°06' E 028°40'0 0.0
2018-May-31 19:00N 44°06' E 028°40'0 0.0
2018-May-31 18:30N 44°06' E 028°40'0 0.0
2018-May-31 18:00N 44°06' E 028°40'0 0.7
2018-May-31 17:30N 44°07' E 028°40'1 1.8
2018-May-31 17:00N 44°07' E 028°39'0 0.0
2018-May-31 16:30N 44°07' E 028°39'0 0.0
2018-May-31 16:00N 44°07' E 028°39'0 0.0
2018-May-31 15:30N 44°07' E 028°39'0 0.0
2018-May-31 15:00N 44°07' E 028°39'0 0.0
2018-May-31 14:30N 44°07' E 028°39'0 0.0
2018-May-31 14:00N 44°07' E 028°39'0 0.0
2018-May-31 13:30N 44°07' E 028°39'0 0.0
2018-May-31 13:00N 44°07' E 028°39'0 0.0
2018-May-31 12:30N 44°07' E 028°39'0 0.0
2018-May-31 12:00N 44°07' E 028°39'0 0.0
2018-May-31 11:30N 44°07' E 028°39'0 0.0
2018-May-31 10:59N 44°07' E 028°39'0 0.0
2018-May-31 10:31N 44°07' E 028°39'0 0.0
2018-May-31 10:01N 44°07' E 028°39'0 0.0
2018-May-31 09:30N 44°07' E 028°39'0 0.0
2018-May-31 09:00N 44°07' E 028°39'0 0.0
2018-May-31 08:30N 44°07' E 028°39'0 0.0
2018-May-31 08:00N 44°07' E 028°39'0 0.0
2018-May-31 07:30N 44°07' E 028°39'0 0.0
2018-May-31 07:00N 44°07' E 028°39'0 0.0
2018-May-31 06:30N 44°07' E 028°39'0 0.0
2018-May-31 06:01N 44°07' E 028°39'0 0.0
2018-May-31 05:30N 44°07' E 028°39'0 0.0
2018-May-31 05:00N 44°07' E 028°39'  
Track history (hours):
 
Tides and Currents Weather Stations Pressure Air Temp Water Temp Dewpoint Dewpoint Depression Visibility Wind Speed Wind Dir Waves Ship Positions

Quasimodo

Last reported at 2018-Jun-10 04:58 UTC. Time now 2018-Jun-20 02:04 UTC.
Position N 44°07' E 027°12'.
Warning: this ship's position is 9 days out of date.

Length 110 m; draft 0.2 m.

Type: Ship. MMSI: 2525526.

Date/timePositionNaut miles runAvg speedWind from/ knotsBaromVisibWave heightAir tempDewpointWater temp
2018-Jun-10 04:58N 44°07' E 027°12'2 1.9
2018-Jun-10 04:05N 44°07' E 027°14'0 0.0
2018-Jun-10 03:57N 44°07' E 027°14'0 0.0
2018-Jun-10 02:38N 44°07' E 027°14'0 0.0
2018-Jun-10 02:23N 44°07' E 027°14'0 0.0
2018-Jun-10 01:04N 44°07' E 027°14'0 0.0
2018-Jun-10 01:00N 44°07' E 027°14'0 0.0
2018-Jun-10 00:29N 44°07' E 027°14'0 0.0
2018-Jun-09 23:59N 44°07' E 027°14'0 0.0
2018-Jun-09 23:30N 44°07' E 027°14'0 0.0
2018-Jun-09 23:00N 44°07' E 027°14'0 0.0
2018-Jun-09 22:28N 44°07' E 027°14'0 0.0
2018-Jun-09 21:48N 44°07' E 027°14'0 0.0
2018-Jun-09 21:24N 44°07' E 027°14'0 0.0
2018-Jun-09 20:18N 44°07' E 027°14'0 0.0
2018-Jun-09 20:00N 44°07' E 027°14'0 0.0
2018-Jun-09 19:29N 44°07' E 027°14'0 0.0
2018-Jun-09 19:00N 44°07' E 027°14'0 0.0
2018-Jun-09 18:30N 44°07' E 027°14'0 0.0
2018-Jun-09 18:00N 44°07' E 027°14'41 1.3
2018-Jun-08 11:20N 44°16' E 028°09'2 4.4
2018-Jun-08 10:57N 44°16' E 028°12'2 4.4
2018-Jun-08 10:29N 44°15' E 028°15'2 4.3
2018-Jun-08 10:00N 44°15' E 028°18'2 4.3
2018-Jun-08 09:30N 44°15' E 028°21'2 4.3
2018-Jun-08 09:00N 44°13' E 028°23'2 4.4
2018-Jun-08 08:27N 44°11' E 028°24'8 3.8
2018-Jun-08 06:27N 44°06' E 028°31'2 4.3
2018-Jun-08 06:00N 44°06' E 028°34'2 4.2
2018-Jun-08 05:30N 44°06' E 028°37'0 0.4
2018-Jun-08 05:00N 44°06' E 028°37'1 1.7
2018-Jun-08 04:30N 44°06' E 028°38'1 2.0
2018-Jun-08 04:00N 44°07' E 028°39'0 0.0
2018-Jun-08 03:30N 44°07' E 028°39'0 0.0
2018-Jun-08 03:00N 44°07' E 028°39'0 0.0
2018-Jun-08 02:30N 44°07' E 028°39'0 0.0
2018-Jun-08 02:00N 44°07' E 028°39'0 0.0
2018-Jun-08 01:30N 44°07' E 028°39'0 0.0
2018-Jun-08 01:01N 44°07' E 028°39'0 0.0
2018-Jun-08 00:31N 44°07' E 028°39'0 0.0
2018-Jun-08 00:01N 44°07' E 028°39'0 0.0
2018-Jun-07 23:30N 44°07' E 028°39'0 0.0
2018-Jun-07 23:00N 44°07' E 028°39'0 0.0
2018-Jun-07 22:30N 44°07' E 028°39'0 0.0
2018-Jun-07 22:00N 44°07' E 028°39'0 0.0
2018-Jun-07 21:30N 44°07' E 028°39'0 0.0
2018-Jun-07 21:00N 44°07' E 028°39'0 0.0
2018-Jun-07 20:30N 44°07' E 028°39'0 0.0
2018-Jun-07 20:00N 44°07' E 028°39'0 0.0
2018-Jun-07 19:30N 44°07' E 028°39'0 0.0
2018-Jun-07 19:00N 44°07' E 028°39'0 0.0
2018-Jun-07 18:31N 44°07' E 028°39'0 0.0
2018-Jun-07 18:00N 44°07' E 028°39'0 0.0
2018-Jun-07 17:30N 44°07' E 028°39'0 0.0
2018-Jun-07 17:00N 44°07' E 028°39'0 0.0
2018-Jun-07 16:30N 44°07' E 028°39'0 0.0
2018-Jun-07 16:00N 44°07' E 028°39'0 0.0
2018-Jun-07 15:30N 44°07' E 028°39'0 0.0
2018-Jun-07 15:00N 44°07' E 028°39'0 0.0
2018-Jun-07 14:30N 44°07' E 028°39'0 0.0
2018-Jun-07 14:00N 44°07' E 028°39'0 0.0
2018-Jun-07 13:30N 44°07' E 028°39'0 0.0
2018-Jun-07 13:00N 44°07' E 028°39'0 0.0
2018-Jun-07 12:30N 44°07' E 028°39'0 0.0
2018-Jun-07 12:00N 44°07' E 028°39'0 0.0
2018-Jun-07 11:31N 44°07' E 028°39'0 0.0
2018-Jun-07 11:00N 44°07' E 028°39'0 0.0
2018-Jun-07 10:30N 44°07' E 028°39'0 0.0
2018-Jun-07 10:00N 44°07' E 028°39'0 0.0
2018-Jun-07 09:30N 44°07' E 028°39'0 0.0
2018-Jun-07 09:01N 44°07' E 028°39'0 0.0
2018-Jun-07 08:30N 44°07' E 028°39'0 0.0
2018-Jun-07 08:00N 44°07' E 028°39'0 0.0
2018-Jun-07 07:30N 44°07' E 028°39'0 0.0
2018-Jun-07 07:00N 44°07' E 028°39'0 0.0
2018-Jun-07 06:30N 44°07' E 028°39'0 0.0
2018-Jun-07 06:00N 44°07' E 028°39'0 0.0
2018-Jun-07 05:30N 44°07' E 028°39'0 0.0
2018-Jun-07 05:00N 44°07' E 028°39'0 0.0
2018-Jun-07 04:30N 44°07' E 028°39'0 0.0
2018-Jun-07 04:00N 44°07' E 028°39'0 0.0
2018-Jun-07 03:30N 44°07' E 028°39'0 0.0
2018-Jun-07 03:00N 44°07' E 028°39'0 0.0
2018-Jun-07 02:30N 44°07' E 028°39'0 0.0
2018-Jun-07 02:00N 44°07' E 028°39'0 0.0
2018-Jun-07 01:30N 44°07' E 028°39'0 0.0
2018-Jun-07 01:01N 44°07' E 028°39'0 0.0
2018-Jun-07 00:30N 44°07' E 028°39'0 0.0
2018-Jun-07 00:00N 44°07' E 028°39'0 0.0
2018-Jun-06 23:30N 44°07' E 028°39'0 0.0
2018-Jun-06 23:00N 44°07' E 028°39'0 0.0
2018-Jun-06 22:30N 44°07' E 028°39'0 0.0
2018-Jun-06 22:00N 44°07' E 028°39'0 0.0
2018-Jun-06 21:30N 44°07' E 028°39'0 0.0
2018-Jun-06 21:00N 44°07' E 028°39'0 0.0
2018-Jun-06 20:30N 44°07' E 028°39'0 0.0
2018-Jun-06 20:00N 44°07' E 028°39'0 0.0
2018-Jun-06 19:30N 44°07' E 028°39'0 0.0
2018-Jun-06 19:00N 44°07' E 028°39'0 0.0
2018-Jun-06 18:30N 44°07' E 028°39'0 0.0
2018-Jun-06 18:00N 44°07' E 028°39'0 0.0
2018-Jun-06 17:30N 44°07' E 028°39'0 0.0
2018-Jun-06 17:00N 44°07' E 028°39'0 0.9
2018-Jun-06 16:30N 44°07' E 028°39'2 4.0
2018-Jun-06 16:00N 44°09' E 028°40'0 0.0
2018-Jun-06 15:30N 44°09' E 028°40'0 0.0
2018-Jun-06 15:00N 44°09' E 028°40'0 0.0
2018-Jun-06 14:30N 44°09' E 028°40'0 0.0
2018-Jun-06 14:00N 44°09' E 028°40'0 0.0
2018-Jun-06 13:30N 44°09' E 028°40'0 0.0
2018-Jun-06 13:00N 44°09' E 028°40'0 0.0
2018-Jun-06 12:30N 44°09' E 028°40'0 0.0
2018-Jun-06 12:00N 44°09' E 028°40'0 0.0
2018-Jun-06 11:30N 44°09' E 028°40'0 0.0
2018-Jun-06 11:00N 44°09' E 028°40'0 0.0
2018-Jun-06 10:30N 44°09' E 028°40'0 0.0
2018-Jun-06 10:01N 44°09' E 028°40'0 0.0
2018-Jun-06 09:30N 44°09' E 028°40'0 0.0
2018-Jun-06 09:01N 44°09' E 028°40'0 0.0
2018-Jun-06 08:30N 44°09' E 028°40'0 0.0
2018-Jun-06 08:00N 44°09' E 028°40'0 0.0
2018-Jun-06 07:30N 44°09' E 028°40'0 0.0
2018-Jun-06 07:00N 44°09' E 028°40'0 0.0
2018-Jun-06 06:30N 44°09' E 028°40'0 0.1
2018-Jun-06 06:00N 44°09' E 028°40'0 0.0
2018-Jun-06 05:30N 44°09' E 028°40'0 0.0
2018-Jun-06 05:00N 44°09' E 028°40'0 0.0
2018-Jun-06 04:30N 44°09' E 028°40'0 0.0
2018-Jun-06 04:00N 44°09' E 028°40'0 0.0
2018-Jun-06 03:30N 44°09' E 028°40'0 0.0
2018-Jun-06 03:00N 44°09' E 028°40'0 0.0
2018-Jun-06 02:30N 44°09' E 028°40'0 0.0
2018-Jun-06 02:00N 44°09' E 028°40'0 0.0
2018-Jun-06 01:30N 44°09' E 028°40'0 0.0
2018-Jun-06 01:00N 44°09' E 028°40'0 0.0
2018-Jun-06 00:30N 44°09' E 028°40'0 0.0
2018-Jun-06 00:00N 44°09' E 028°40'0 0.0
2018-Jun-05 23:30N 44°09' E 028°40'0 0.0
2018-Jun-05 23:01N 44°09' E 028°40'0 0.0
2018-Jun-05 22:30N 44°09' E 028°40'0 0.0
2018-Jun-05 22:00N 44°09' E 028°40'0 0.0
2018-Jun-05 21:30N 44°09' E 028°40'0 0.0
2018-Jun-05 21:00N 44°09' E 028°40'0 0.0
2018-Jun-05 20:30N 44°09' E 028°40'0 0.0
2018-Jun-05 20:00N 44°09' E 028°40'0 0.1
2018-Jun-05 19:30N 44°09' E 028°40'0 0.1
2018-Jun-05 19:00N 44°09' E 028°40'0 0.0
2018-Jun-05 18:30N 44°09' E 028°40'0 0.0
2018-Jun-05 18:00N 44°09' E 028°40'0 0.0
2018-Jun-05 17:30N 44°09' E 028°40'0 0.0
2018-Jun-05 17:00N 44°09' E 028°40'0 0.0
2018-Jun-05 16:30N 44°09' E 028°40'0 0.0
2018-Jun-05 16:00N 44°09' E 028°40'0 0.0
2018-Jun-05 15:31N 44°09' E 028°40'0 0.0
2018-Jun-05 15:01N 44°09' E 028°40'0 0.0
2018-Jun-05 14:30N 44°09' E 028°40'0 0.0
2018-Jun-05 14:00N 44°09' E 028°40'0 0.0
2018-Jun-05 13:30N 44°09' E 028°40'0 0.0
2018-Jun-05 13:00N 44°09' E 028°40'0 0.0
2018-Jun-05 12:31N 44°09' E 028°40'0 0.0
2018-Jun-05 12:00N 44°09' E 028°40'0 0.0
2018-Jun-05 11:31N 44°09' E 028°40'0 0.0
2018-Jun-05 11:00N 44°09' E 028°40'0 0.0
2018-Jun-05 10:30N 44°09' E 028°40'0 0.0
2018-Jun-05 10:00N 44°09' E 028°40'0 0.0
2018-Jun-05 09:30N 44°09' E 028°40'0 0.0
2018-Jun-05 09:00N 44°09' E 028°40'0 0.0
2018-Jun-05 08:30N 44°09' E 028°40'0 0.0
2018-Jun-05 08:00N 44°09' E 028°40'0 0.0
2018-Jun-05 07:30N 44°09' E 028°40'0 0.0
2018-Jun-05 07:00N 44°09' E 028°40'0 0.4
2018-Jun-05 06:30N 44°09' E 028°40'2 4.7
2018-Jun-05 06:00N 44°07' E 028°39'0 0.2
2018-Jun-05 05:30N 44°07' E 028°39'0 0.0
2018-Jun-05 05:00N 44°07' E 028°39'0 0.0
2018-Jun-05 04:30N 44°07' E 028°39'0 0.0
2018-Jun-05 04:00N 44°07' E 028°39'0 0.0
2018-Jun-05 03:30N 44°07' E 028°39'0 0.0
2018-Jun-05 03:00N 44°07' E 028°39'0 0.0
2018-Jun-05 02:30N 44°07' E 028°39'0 0.0
2018-Jun-05 02:00N 44°07' E 028°39'0 0.0
2018-Jun-05 01:30N 44°07' E 028°39'0 0.0
2018-Jun-05 01:00N 44°07' E 028°39'0 0.0
2018-Jun-05 00:30N 44°07' E 028°39'0 0.0
2018-Jun-05 00:00N 44°07' E 028°39'0 0.0
2018-Jun-04 23:30N 44°07' E 028°39'0 0.0
2018-Jun-04 23:00N 44°07' E 028°39'0 0.0
2018-Jun-04 22:30N 44°07' E 028°39'0 0.0
2018-Jun-04 22:00N 44°07' E 028°39'0 0.0
2018-Jun-04 21:31N 44°07' E 028°39'0 0.0
2018-Jun-04 21:00N 44°07' E 028°39'0 0.0
2018-Jun-04 20:30N 44°07' E 028°39'0 0.0
2018-Jun-04 20:00N 44°07' E 028°39'0 0.0
2018-Jun-04 19:30N 44°07' E 028°39'0 0.0
2018-Jun-04 19:00N 44°07' E 028°39'0 0.0
2018-Jun-04 18:30N 44°07' E 028°39'0 0.0
2018-Jun-04 18:00N 44°07' E 028°39'0 0.0
2018-Jun-04 17:30N 44°07' E 028°39'0 0.0
2018-Jun-04 17:00N 44°07' E 028°39'0 0.0
2018-Jun-04 16:30N 44°07' E 028°39'0 0.0
2018-Jun-04 16:00N 44°07' E 028°39'0 0.0
2018-Jun-04 15:31N 44°07' E 028°39'0 0.0
2018-Jun-04 15:00N 44°07' E 028°39'0 0.0
2018-Jun-04 14:30N 44°07' E 028°39'0 0.0
2018-Jun-04 14:00N 44°07' E 028°39'0 0.0
2018-Jun-04 13:30N 44°07' E 028°39'0 0.0
2018-Jun-04 13:00N 44°07' E 028°39'0 0.0
2018-Jun-04 12:30N 44°07' E 028°39'0 0.0
2018-Jun-04 12:00N 44°07' E 028°39'0 0.0
2018-Jun-04 11:30N 44°07' E 028°39'0 0.0
2018-Jun-04 11:00N 44°07' E 028°39'0 0.0
2018-Jun-04 10:30N 44°07' E 028°39'0 0.0
2018-Jun-04 10:00N 44°07' E 028°39'0 0.0
2018-Jun-04 09:30N 44°07' E 028°39'0 0.0
2018-Jun-04 09:00N 44°07' E 028°39'0 0.0
2018-Jun-04 08:30N 44°07' E 028°39'0 0.0
2018-Jun-04 08:00N 44°07' E 028°39'0 0.0
2018-Jun-04 07:30N 44°07' E 028°39'0 0.0
2018-Jun-04 07:00N 44°07' E 028°39'0 0.0
2018-Jun-04 06:30N 44°07' E 028°39'0 0.0
2018-Jun-04 06:00N 44°07' E 028°39'0 0.0
2018-Jun-04 05:30N 44°07' E 028°39'0 0.0
2018-Jun-04 05:00N 44°07' E 028°39'0 0.0
2018-Jun-04 04:30N 44°07' E 028°39'0 0.0
2018-Jun-04 04:00N 44°07' E 028°39'0 0.0
2018-Jun-04 03:31N 44°07' E 028°39'0 0.0
2018-Jun-04 03:00N 44°07' E 028°39'0 0.0
2018-Jun-04 02:30N 44°07' E 028°39'0 0.0
2018-Jun-04 02:00N 44°07' E 028°39'0 0.0
2018-Jun-04 01:30N 44°07' E 028°39'0 0.0
2018-Jun-04 01:00N 44°07' E 028°39'0 0.0
2018-Jun-04 00:30N 44°07' E 028°39'0 0.0
2018-Jun-04 00:00N 44°07' E 028°39'0 0.0
2018-Jun-03 23:30N 44°07' E 028°39'0 0.0
2018-Jun-03 23:00N 44°07' E 028°39'0 0.0
2018-Jun-03 22:30N 44°07' E 028°39'0 0.0
2018-Jun-03 22:00N 44°07' E 028°39'0 0.0
2018-Jun-03 21:30N 44°07' E 028°39'0 0.0
2018-Jun-03 21:00N 44°07' E 028°39'0 0.0
2018-Jun-03 20:30N 44°07' E 028°39'0 0.0
2018-Jun-03 20:00N 44°07' E 028°39'0 0.0
2018-Jun-03 19:30N 44°07' E 028°39'0 0.0
2018-Jun-03 19:00N 44°07' E 028°39'0 0.0
2018-Jun-03 18:30N 44°07' E 028°39'0 0.0
2018-Jun-03 18:00N 44°07' E 028°39'0 0.0
2018-Jun-03 17:30N 44°07' E 028°39'0 0.0
2018-Jun-03 17:00N 44°07' E 028°39'0 0.0
2018-Jun-03 16:28N 44°07' E 028°39'0 0.0
2018-Jun-03 16:00N 44°07' E 028°39'0 0.0
2018-Jun-03 15:30N 44°07' E 028°39'0 0.0
2018-Jun-03 15:00N 44°07' E 028°39'0 0.0
2018-Jun-03 14:30N 44°07' E 028°39'0 0.0
2018-Jun-03 14:00N 44°07' E 028°39'0 0.0
2018-Jun-03 13:30N 44°07' E 028°39'0 0.0
2018-Jun-03 12:59N 44°07' E 028°39'0 0.0
2018-Jun-03 12:30N 44°07' E 028°39'0 0.0
2018-Jun-03 12:00N 44°07' E 028°39'0 0.0
2018-Jun-03 11:30N 44°07' E 028°39'0 0.0
2018-Jun-03 11:00N 44°07' E 028°39'0 0.0
2018-Jun-03 10:30N 44°07' E 028°39'0 0.0
2018-Jun-03 10:00N 44°07' E 028°39'0 0.0
2018-Jun-03 09:30N 44°07' E 028°39'0 0.0
2018-Jun-03 09:00N 44°07' E 028°39'0 0.0
2018-Jun-03 08:30N 44°07' E 028°39'0 0.0
2018-Jun-03 08:00N 44°07' E 028°39'0 0.0
2018-Jun-03 07:30N 44°07' E 028°39'0 0.0
2018-Jun-03 07:00N 44°07' E 028°39'0 0.0
2018-Jun-03 06:30N 44°07' E 028°39'0 0.0
2018-Jun-03 06:00N 44°07' E 028°39'0 0.0
2018-Jun-03 05:30N 44°07' E 028°39'0 0.0
2018-Jun-03 05:00N 44°07' E 028°39'0 0.0
2018-Jun-03 04:30N 44°07' E 028°39'0 0.0
2018-Jun-03 04:00N 44°07' E 028°39'0 0.0
2018-Jun-03 03:30N 44°07' E 028°39'0 0.0
2018-Jun-03 03:00N 44°07' E 028°39'0 0.0
2018-Jun-03 02:30N 44°07' E 028°39'0 0.0
2018-Jun-03 02:00N 44°07' E 028°39'0 0.0
2018-Jun-03 01:30N 44°07' E 028°39'0 0.0
2018-Jun-03 01:00N 44°07' E 028°39'0 0.0
2018-Jun-03 00:30N 44°07' E 028°39'0 0.0
2018-Jun-03 00:00N 44°07' E 028°39'0 0.0
2018-Jun-02 23:31N 44°07' E 028°39'0 0.0
2018-Jun-02 23:00N 44°07' E 028°39'0 0.0
2018-Jun-02 22:30N 44°07' E 028°39'0 0.0
2018-Jun-02 22:00N 44°07' E 028°39'0 0.0
2018-Jun-02 21:29N 44°07' E 028°39'0 0.0
2018-Jun-02 21:00N 44°07' E 028°39'0 0.0
2018-Jun-02 20:30N 44°07' E 028°39'0 0.0
2018-Jun-02 20:00N 44°07' E 028°39'0 0.0
2018-Jun-02 19:30N 44°07' E 028°39'0 0.0
2018-Jun-02 19:00N 44°07' E 028°39'0 0.0
2018-Jun-02 18:30N 44°07' E 028°39'0 0.0
2018-Jun-02 18:00N 44°07' E 028°39'0 0.0
2018-Jun-02 17:30N 44°07' E 028°39'0 0.0
2018-Jun-02 17:00N 44°07' E 028°39'0 0.0
2018-Jun-02 16:30N 44°07' E 028°39'0 0.0
2018-Jun-02 16:00N 44°07' E 028°39'0 0.0
2018-Jun-02 15:30N 44°07' E 028°39'0 0.0
2018-Jun-02 15:00N 44°07' E 028°39'0 0.0
2018-Jun-02 14:30N 44°07' E 028°39'0 0.0
2018-Jun-02 14:00N 44°07' E 028°39'0 0.0
2018-Jun-02 13:30N 44°07' E 028°39'0 0.0
2018-Jun-02 13:00N 44°07' E 028°39'0 0.0
2018-Jun-02 12:30N 44°07' E 028°39'0 0.0
2018-Jun-02 12:00N 44°07' E 028°39'0 0.0
2018-Jun-02 11:30N 44°07' E 028°39'0 0.0
2018-Jun-02 11:00N 44°07' E 028°39'0 0.0
2018-Jun-02 10:30N 44°07' E 028°39'0 0.0
2018-Jun-02 10:00N 44°07' E 028°39'0 0.0
2018-Jun-02 09:30N 44°07' E 028°39'0 0.0
2018-Jun-02 09:00N 44°07' E 028°39'0 0.0
2018-Jun-02 08:30N 44°07' E 028°39'0 0.0
2018-Jun-02 08:00N 44°07' E 028°39'0 0.0
2018-Jun-02 07:30N 44°07' E 028°39'0 0.0
2018-Jun-02 07:00N 44°07' E 028°39'0 0.0
2018-Jun-02 06:30N 44°07' E 028°39'0 0.0
2018-Jun-02 06:00N 44°07' E 028°39'0 0.0
2018-Jun-02 04:33N 44°07' E 028°39'0 0.0
2018-Jun-02 04:30N 44°07' E 028°39'0 0.0
2018-Jun-02 04:00N 44°07' E 028°39'0 0.0
2018-Jun-02 03:30N 44°07' E 028°39'0 0.0
2018-Jun-02 03:00N 44°07' E 028°39'0 0.0
2018-Jun-02 02:30N 44°07' E 028°39'0 0.0
2018-Jun-02 01:59N 44°07' E 028°39'0 0.0
2018-Jun-02 01:30N 44°07' E 028°39'0 0.0
2018-Jun-02 01:00N 44°07' E 028°39'0 0.0
2018-Jun-02 00:30N 44°07' E 028°39'0 0.0
2018-Jun-02 00:00N 44°07' E 028°39'0 0.0
2018-Jun-01 23:30N 44°07' E 028°39'0 0.0
2018-Jun-01 23:00N 44°07' E 028°39'0 0.0
2018-Jun-01 22:30N 44°07' E 028°39'0 0.0
2018-Jun-01 22:00N 44°07' E 028°39'0 0.0
2018-Jun-01 21:30N 44°07' E 028°39'0 0.0
2018-Jun-01 21:00N 44°07' E 028°39'0 0.0
2018-Jun-01 20:30N 44°07' E 028°39'0 0.0
2018-Jun-01 20:00N 44°07' E 028°39'0 0.0
2018-Jun-01 19:30N 44°07' E 028°39'0 0.0
2018-Jun-01 19:00N 44°07' E 028°39'0 0.0
2018-Jun-01 18:30N 44°07' E 028°39'0 0.0
2018-Jun-01 18:00N 44°07' E 028°39'0 0.0
2018-Jun-01 17:30N 44°07' E 028°39'0 0.0
2018-Jun-01 17:00N 44°07' E 028°39'0 0.6
2018-Jun-01 16:30N 44°07' E 028°39'1 1.8
2018-Jun-01 16:00N 44°06' E 028°40'0 0.0
2018-Jun-01 15:30N 44°06' E 028°40'0 0.1
2018-Jun-01 15:00N 44°06' E 028°40'0 0.0
2018-Jun-01 14:30N 44°06' E 028°40'0 0.1
2018-Jun-01 14:00N 44°06' E 028°40'0 0.0
2018-Jun-01 13:30N 44°06' E 028°40'0 0.0
2018-Jun-01 13:00N 44°06' E 028°40'0 0.0
2018-Jun-01 12:30N 44°06' E 028°40'0 0.0
2018-Jun-01 12:00N 44°06' E 028°40'0 0.0
2018-Jun-01 11:30N 44°06' E 028°40'0 0.0
2018-Jun-01 11:00N 44°06' E 028°40'0 0.0
2018-Jun-01 10:30N 44°06' E 028°40'0 0.1
2018-Jun-01 10:00N 44°06' E 028°40'0 0.0
2018-Jun-01 09:30N 44°06' E 028°40'0 0.0
2018-Jun-01 09:00N 44°06' E 028°40'0 0.0
2018-Jun-01 08:30N 44°06' E 028°40'0 0.0
2018-Jun-01 08:00N 44°06' E 028°40'0 0.0
2018-Jun-01 07:30N 44°06' E 028°40'0 0.0
2018-Jun-01 07:00N 44°06' E 028°40'0 0.0
2018-Jun-01 06:30N 44°06' E 028°40'0 0.0
2018-Jun-01 06:00N 44°06' E 028°40'0 0.0
2018-Jun-01 05:30N 44°06' E 028°40'0 0.0
2018-Jun-01 05:00N 44°06' E 028°40'0 0.0
2018-Jun-01 04:30N 44°06' E 028°40'0 0.0
2018-Jun-01 04:00N 44°06' E 028°40'0 0.0
2018-Jun-01 03:30N 44°06' E 028°40'0 0.0
2018-Jun-01 03:00N 44°06' E 028°40'0 0.0
2018-Jun-01 02:30N 44°06' E 028°40'0 0.0
2018-Jun-01 02:00N 44°06' E 028°40'0 0.0
2018-Jun-01 01:30N 44°06' E 028°40'0 0.0
2018-Jun-01 01:00N 44°06' E 028°40'0 0.0
2018-Jun-01 00:30N 44°06' E 028°40'0 0.1
2018-Jun-01 00:00N 44°06' E 028°40'0 0.0
2018-May-31 23:30N 44°06' E 028°40'0 0.0
2018-May-31 23:00N 44°06' E 028°40'0 0.0
2018-May-31 22:30N 44°06' E 028°40'0 0.0
2018-May-31 22:00N 44°06' E 028°40'0 0.0
2018-May-31 21:30N 44°06' E 028°40'0 0.0
2018-May-31 21:00N 44°06' E 028°40'0 0.0
2018-May-31 20:30N 44°06' E 028°40'0 0.0
2018-May-31 20:00N 44°06' E 028°40'0 0.0
2018-May-31 19:30N 44°06' E 028°40'0 0.0
2018-May-31 19:00N 44°06' E 028°40'0 0.0
2018-May-31 18:30N 44°06' E 028°40'0 0.0
2018-May-31 18:00N 44°06' E 028°40'0 0.7
2018-May-31 17:30N 44°07' E 028°40'1 1.8
2018-May-31 17:00N 44°07' E 028°39'0 0.0
2018-May-31 16:30N 44°07' E 028°39'0 0.0
2018-May-31 16:00N 44°07' E 028°39'0 0.0
2018-May-31 15:30N 44°07' E 028°39'0 0.0
2018-May-31 15:00N 44°07' E 028°39'0 0.0
2018-May-31 14:30N 44°07' E 028°39'0 0.0
2018-May-31 14:00N 44°07' E 028°39'0 0.0
2018-May-31 13:30N 44°07' E 028°39'0 0.0
2018-May-31 13:00N 44°07' E 028°39'0 0.0
2018-May-31 12:30N 44°07' E 028°39'0 0.0
2018-May-31 12:00N 44°07' E 028°39'0 0.0
2018-May-31 11:30N 44°07' E 028°39'0 0.0
2018-May-31 10:59N 44°07' E 028°39'0 0.0
2018-May-31 10:31N 44°07' E 028°39'0 0.0
2018-May-31 10:01N 44°07' E 028°39'0 0.0
2018-May-31 09:30N 44°07' E 028°39'0 0.0
2018-May-31 09:00N 44°07' E 028°39'0 0.0
2018-May-31 08:30N 44°07' E 028°39'0 0.0
2018-May-31 08:00N 44°07' E 028°39'0 0.0
2018-May-31 07:30N 44°07' E 028°39'0 0.0
2018-May-31 07:00N 44°07' E 028°39'0 0.0
2018-May-31 06:30N 44°07' E 028°39'0 0.0
2018-May-31 06:01N 44°07' E 028°39'0 0.0
2018-May-31 05:30N 44°07' E 028°39'0 0.0
2018-May-31 05:00N 44°07' E 028°39'  

Dump ship's entire track history